Time;durP1;ratioP1;P1;durP2;ratioP2;P2;SDS_P1;SDS_P2;PMS_P1;PMS_P2;Temp;Humidity;BMP_temperature;BMP_pressure;BME280_temperature;BME280_humidity;BME280_pressure;Samples;Min_cycle;Max_cycle;Signal;HPM_P1;HPM_P2
2022/11/21 00:00:49;;;;;;;50.78;23.17;;;2.80;92.70;;;;;;5093866;28;20027;-61
2022/11/21 00:03:14;;;;;;;42.13;21.15;;;2.90;92.70;;;;;;5093504;28;20031;-61
2022/11/21 00:05:45;;;;;;;50.05;21.92;;;2.90;92.60;;;;;;5092250;28;20020;-61
2022/11/21 00:08:12;;;;;;;43.33;20.50;;;2.90;92.60;;;;;;5096039;28;20146;-60
2022/11/21 00:10:39;;;;;;;46.97;19.70;;;2.80;92.40;;;;;;5096189;28;20384;-58
2022/11/21 00:13:05;;;;;;;53.55;21.45;;;2.80;92.40;;;;;;5097517;28;20016;-59
2022/11/21 00:15:32;;;;;;;40.58;19.27;;;2.90;92.50;;;;;;5097632;28;20102;-61
2022/11/21 00:18:00;;;;;;;40.78;20.33;;;2.90;92.40;;;;;;5097298;28;20475;-59
2022/11/21 00:20:26;;;;;;;43.40;19.60;;;3.10;92.50;;;;;;5097150;28;20464;-59
2022/11/21 00:22:51;;;;;;;50.88;22.10;;;3.30;92.30;;;;;;5097304;28;20024;-59
2022/11/21 00:25:17;;;;;;;45.58;22.15;;;3.20;92.00;;;;;;5096947;28;20142;-60
2022/11/21 00:27:43;;;;;;;40.92;20.20;;;3.10;91.80;;;;;;5096973;28;20036;-60
2022/11/21 00:30:10;;;;;;;55.28;23.23;;;2.80;91.50;;;;;;5097055;28;20097;-58
2022/11/21 00:32:35;;;;;;;44.78;20.17;;;2.60;91.70;;;;;;5097051;28;20052;-60
2022/11/21 00:35:01;;;;;;;47.45;20.85;;;2.60;92.20;;;;;;5097104;28;20487;-60
2022/11/21 00:37:27;;;;;;;43.90;22.20;;;2.60;92.30;;;;;;5096860;28;20035;-60
2022/11/21 00:39:52;;;;;;;41.47;20.52;;;2.60;92.30;;;;;;5096749;28;20063;-58
2022/11/21 00:42:18;;;;;;;38.60;19.90;;;2.70;92.40;;;;;;5096787;28;20069;-60
2022/11/21 00:44:44;;;;;;;40.72;20.45;;;2.80;92.50;;;;;;5096750;28;20028;-60
2022/11/21 00:47:09;;;;;;;41.78;21.05;;;2.80;92.30;;;;;;5096805;28;20047;-59
2022/11/21 00:49:35;;;;;;;43.58;20.38;;;2.80;92.20;;;;;;5096836;28;20016;-60
2022/11/21 00:52:01;;;;;;;43.75;20.83;;;2.90;92.30;;;;;;5097370;28;20020;-60
2022/11/21 00:54:26;;;;;;;38.13;19.85;;;2.80;92.10;;;;;;5097228;28;20110;-59
2022/11/21 00:56:52;;;;;;;40.10;19.20;;;2.60;91.70;;;;;;5096623;28;20379;-60
2022/11/21 00:59:18;;;;;;;41.15;20.77;;;2.50;92.00;;;;;;5096772;28;20028;-58
2022/11/21 01:01:44;;;;;;;39.92;20.70;;;2.60;92.20;;;;;;5096260;28;20020;-59
2022/11/21 01:04:09;;;;;;;45.53;22.77;;;2.60;92.30;;;;;;5096223;28;20032;-59
2022/11/21 01:06:36;;;;;;;47.65;22.13;;;2.60;92.30;;;;;;5096426;28;20031;-60
2022/11/21 01:09:02;;;;;;;47.20;21.05;;;2.60;92.30;;;;;;5096282;28;20032;-59
2022/11/21 01:11:28;;;;;;;38.05;19.20;;;2.70;92.30;;;;;;5096336;28;20036;-61
2022/11/21 01:13:54;;;;;;;38.40;18.48;;;2.80;92.30;;;;;;5096407;28;20030;-59
2022/11/21 01:16:23;;;;;;;42.00;19.52;;;2.80;92.30;;;;;;5096217;28;20024;-60
2022/11/21 01:18:49;;;;;;;33.60;17.15;;;2.80;92.30;;;;;;5095653;28;20476;-58
2022/11/21 01:21:20;;;;;;;35.22;17.95;;;2.80;92.00;;;;;;5095946;28;20020;-58
2022/11/21 01:23:46;;;;;;;34.75;16.30;;;3.10;92.00;;;;;;5096065;28;20024;-61
2022/11/21 01:26:15;;;;;;;38.15;17.17;;;3.00;91.80;;;;;;5096064;28;20024;-59
2022/11/21 01:28:41;;;;;;;32.70;16.90;;;3.20;91.80;;;;;;5096206;28;20020;-59
2022/11/21 01:31:08;;;;;;;31.83;15.98;;;3.20;91.00;;;;;;5095900;28;20430;-60
2022/11/21 01:33:34;;;;;;;30.00;16.75;;;3.20;91.10;;;;;;5077887;28;20024;-60
2022/11/21 01:36:07;;;;;;;36.15;17.05;;;3.00;90.90;;;;;;5094575;28;20049;-58
2022/11/21 01:38:33;;;;;;;37.10;17.40;;;3.00;90.70;;;;;;5095878;28;20099;-58
2022/11/21 01:40:59;;;;;;;37.88;18.13;;;2.90;90.90;;;;;;5095744;28;20063;-60
2022/11/21 01:43:24;;;;;;;35.70;18.98;;;2.80;91.10;;;;;;5095500;28;20024;-60
2022/11/21 01:46:10;;;;;;;40.78;19.30;;;2.80;91.20;;;;;;5095430;28;20504;-58
2022/11/21 01:49:03;;;;;;;43.10;20.13;;;2.80;91.20;;;;;;5095732;28;20525;-58
2022/11/21 01:51:48;;;;;;;43.00;18.88;;;2.90;91.30;;;;;;5095317;28;20024;-59
2022/11/21 01:54:32;;;;;;;36.40;18.77;;;2.80;91.10;;;;;;5095402;28;20039;-58
2022/11/21 01:57:09;;;;;;;40.03;18.90;;;2.80;91.20;;;;;;5095724;28;20028;-60
2022/11/21 01:59:58;;;;;;;36.92;18.02;;;2.80;91.30;;;;;;5095446;28;20024;-58
2022/11/21 02:02:28;;;;;;;39.85;19.30;;;2.80;91.40;;;;;;5095487;28;20414;-58
2022/11/21 02:04:55;;;;;;;39.40;18.93;;;2.80;91.30;;;;;;5095122;28;20069;-59
2022/11/21 02:07:23;;;;;;;42.67;20.33;;;2.80;91.40;;;;;;5095188;28;20027;-59
2022/11/21 02:10:00;;;;;;;44.30;21.10;;;2.70;91.40;;;;;;5095295;28;20393;-59
2022/11/21 02:12:33;;;;;;;43.53;18.92;;;2.60;91.70;;;;;;5094996;28;20020;-59
2022/11/21 02:14:59;;;;;;;45.85;20.90;;;2.70;91.80;;;;;;5094782;28;20472;-59
2022/11/21 02:17:28;;;;;;;44.20;21.10;;;2.60;91.70;;;;;;5094825;28;20028;-59
2022/11/21 02:20:08;;;;;;;46.72;21.00;;;2.60;91.90;;;;;;5094789;28;20028;-59
2022/11/21 02:23:07;;;;;;;46.80;20.90;;;2.50;92.00;;;;;;5095059;28;20459;-59
2022/11/21 02:25:35;;;;;;;41.20;19.90;;;2.60;92.10;;;;;;5094677;28;20027;-59
2022/11/21 02:28:04;;;;;;;46.97;21.13;;;2.60;92.10;;;;;;5093641;28;20031;-58
2022/11/21 02:30:32;;;;;;;45.58;22.45;;;2.70;92.10;;;;;;5094126;28;20032;-59
2022/11/21 02:32:58;;;;;;;44.58;22.35;;;2.70;92.00;;;;;;5094498;28;20093;-59
2022/11/21 02:35:24;;;;;;;44.17;21.08;;;2.80;92.00;;;;;;5094518;28;20075;-60
2022/11/21 02:38:18;;;;;;;42.13;20.52;;;2.80;92.00;;;;;;5095681;28;20479;-59
2022/11/21 02:40:57;;;;;;;41.47;20.40;;;2.80;91.70;;;;;;5083525;28;20110;-58
2022/11/21 02:43:49;;;;;;;39.92;20.65;;;2.60;91.50;;;;;;5094737;28;20413;-59
2022/11/21 02:46:14;;;;;;;54.30;23.35;;;2.70;91.70;;;;;;5093700;28;20531;-59
2022/11/21 02:48:40;;;;;;;42.97;20.33;;;2.70;91.70;;;;;;5093011;28;20052;-60
2022/11/21 02:51:06;;;;;;;49.47;20.83;;;2.60;91.80;;;;;;5094295;28;20065;-60
2022/11/21 02:53:32;;;;;;;49.08;21.17;;;2.60;92.00;;;;;;5094515;28;20024;-60
2022/11/21 02:55:57;;;;;;;47.78;21.13;;;2.80;92.20;;;;;;5094269;28;20028;-59
2022/11/21 02:58:23;;;;;;;46.17;20.75;;;2.90;92.10;;;;;;5094306;28;20051;-59
2022/11/21 03:00:48;;;;;;;50.67;21.85;;;3.00;91.90;;;;;;5094294;28;20391;-60
2022/11/21 03:03:14;;;;;;;48.38;22.10;;;3.00;91.70;;;;;;5094061;28;20038;-59
2022/11/21 03:05:40;;;;;;;45.55;20.17;;;3.00;91.60;;;;;;5094341;28;20024;-59
2022/11/21 03:08:06;;;;;;;46.90;23.25;;;2.90;91.30;;;;;;5094064;28;20016;-59
2022/11/21 03:10:32;;;;;;;43.85;20.08;;;2.90;91.40;;;;;;5094235;28;20028;-61
2022/11/21 03:13:01;;;;;;;50.28;22.23;;;2.90;91.30;;;;;;5094111;28;20027;-60
2022/11/21 03:15:29;;;;;;;50.67;22.48;;;2.80;91.40;;;;;;5094390;28;20028;-60
2022/11/21 03:17:56;;;;;;;46.80;21.58;;;2.80;91.60;;;;;;5094138;28;20043;-60
2022/11/21 03:20:22;;;;;;;47.45;20.40;;;3.00;91.70;;;;;;5094061;28;20099;-59
2022/11/21 03:22:49;;;;;;;47.40;23.98;;;2.90;91.70;;;;;;5094113;28;20052;-59
2022/11/21 03:25:15;;;;;;;47.38;21.45;;;2.80;91.50;;;;;;5092503;28;20031;-59
2022/11/21 03:27:40;;;;;;;50.10;23.83;;;2.70;91.70;;;;;;5093594;28;20028;-61
2022/11/21 03:30:07;;;;;;;47.70;23.17;;;2.70;92.00;;;;;;5093678;28;20026;-59
2022/11/21 03:32:32;;;;;;;49.63;22.15;;;2.80;92.10;;;;;;5093918;28;20019;-59
2022/11/21 03:34:58;;;;;;;51.28;23.40;;;2.60;92.10;;;;;;5093861;28;20024;-60
2022/11/21 03:37:23;;;;;;;52.05;23.95;;;2.60;92.20;;;;;;5093474;28;20028;-59
2022/11/21 03:39:49;;;;;;;47.40;24.20;;;2.50;92.20;;;;;;5093789;28;20486;-60
2022/11/21 03:42:14;;;;;;;60.40;23.60;;;2.50;92.20;;;;;;5093312;28;20028;-60
2022/11/21 03:44:41;;;;;;;51.58;23.60;;;2.50;92.30;;;;;;5093471;28;20094;-60
2022/11/21 03:47:06;;;;;;;53.05;21.13;;;2.40;92.30;;;;;;5093204;28;20036;-60
2022/11/21 03:49:32;;;;;;;61.60;23.38;;;2.50;92.30;;;;;;5093451;28;20020;-61
2022/11/21 03:51:57;;;;;;;51.08;23.08;;;2.50;92.30;;;;;;5093997;28;20031;-60
2022/11/21 03:54:23;;;;;;;53.63;24.67;;;2.50;92.20;;;;;;5094288;28;20020;-61
2022/11/21 03:56:49;;;;;;;53.53;22.83;;;2.50;92.10;;;;;;5094307;28;20488;-60
2022/11/21 03:59:14;;;;;;;61.72;24.98;;;2.50;92.20;;;;;;5096113;28;20032;-60
2022/11/21 04:01:40;;;;;;;47.58;20.20;;;2.60;92.20;;;;;;5095203;28;20475;-60
2022/11/21 04:04:05;;;;;;;57.40;23.98;;;2.50;92.20;;;;;;5094060;28;20103;-61
2022/11/21 04:06:31;;;;;;;51.22;22.92;;;2.60;92.10;;;;;;5093488;28;20026;-60
2022/11/21 04:08:57;;;;;;;55.30;23.83;;;2.50;91.90;;;;;;5094025;28;20028;-60
2022/11/21 04:11:23;;;;;;;48.00;22.13;;;2.60;92.00;;;;;;5093680;28;20038;-60
2022/11/21 04:13:52;;;;;;;52.60;22.40;;;2.70;92.10;;;;;;5093248;28;20013;-59
2022/11/21 04:16:18;;;;;;;54.60;24.98;;;2.80;92.10;;;;;;5093273;28;20052;-59
2022/11/21 04:18:43;;;;;;;48.47;22.52;;;2.80;91.80;;;;;;5093092;28;20029;-60
2022/11/21 04:21:09;;;;;;;49.00;22.85;;;2.80;91.50;;;;;;5093038;28;20107;-60
2022/11/21 04:23:35;;;;;;;52.17;21.80;;;2.80;91.70;;;;;;5093327;28;20024;-60
2022/11/21 04:26:01;;;;;;;51.38;23.63;;;2.80;91.60;;;;;;5093157;28;20034;-60
2022/11/21 04:28:27;;;;;;;49.42;22.10;;;2.80;91.60;;;;;;5093081;28;20020;-60
2022/11/21 04:30:52;;;;;;;50.40;23.92;;;2.80;91.30;;;;;;5092987;28;20024;-61
2022/11/21 04:33:18;;;;;;;47.38;21.48;;;2.70;91.60;;;;;;5092901;28;20032;-60
2022/11/21 04:35:45;;;;;;;53.72;23.48;;;2.80;91.70;;;;;;5093230;28;20058;-60
2022/11/21 04:38:12;;;;;;;48.20;21.65;;;2.80;91.60;;;;;;5093037;28;20103;-60
2022/11/21 04:40:39;;;;;;;50.75;22.73;;;2.80;91.70;;;;;;5092991;28;20467;-60
2022/11/21 04:43:04;;;;;;;52.13;21.88;;;2.90;91.70;;;;;;5093237;28;20027;-60
2022/11/21 04:45:31;;;;;;;54.47;23.80;;;2.90;91.60;;;;;;5092763;28;20048;-60
2022/11/21 04:47:56;;;;;;;52.10;24.85;;;2.70;91.20;;;;;;5092851;28;20016;-59
2022/11/21 04:50:23;;;;;;;54.88;21.55;;;2.70;91.50;;;;;;5092790;28;20024;-60
2022/11/21 04:52:50;;;;;;;48.10;21.55;;;2.80;91.70;;;;;;5092882;28;20077;-60
2022/11/21 04:55:16;;;;;;;43.45;21.52;;;2.80;91.60;;;;;;5096446;28;20360;-60
2022/11/21 04:57:41;;;;;;;43.63;20.98;;;2.80;91.70;;;;;;5096777;28;20107;-61
2022/11/21 05:00:07;;;;;;;40.95;20.48;;;2.80;91.70;;;;;;5097145;28;20031;-61
2022/11/21 05:02:33;;;;;;;38.45;19.52;;;3.00;91.90;;;;;;5096213;28;20024;-61
2022/11/21 05:04:59;;;;;;;45.33;20.65;;;3.00;91.60;;;;;;5095154;28;20035;-60
2022/11/21 05:07:25;;;;;;;43.10;22.23;;;3.00;91.40;;;;;;5096213;28;20182;-59
2022/11/21 05:09:50;;;;;;;42.35;19.98;;;2.90;91.40;;;;;;5096296;28;20047;-60
2022/11/21 05:15:00;;;;;;;48.80;21.98;;;2.80;91.30;;;;;;5096105;28;20097;-60
2022/11/21 05:17:28;;;;;;;54.50;24.13;;;2.80;91.60;;;;;;5095993;28;20024;-60
2022/11/21 05:19:53;;;;;;;57.38;23.08;;;2.90;91.60;;;;;;5095984;28;20024;-60
2022/11/21 05:22:19;;;;;;;62.13;23.88;;;2.80;91.50;;;;;;5095996;28;20107;-60
2022/11/21 05:24:44;;;;;;;59.83;23.65;;;3.00;91.50;;;;;;5095951;28;20380;-61
2022/11/21 05:27:10;;;;;;;61.55;25.92;;;3.00;91.20;;;;;;5094452;28;20380;-60
2022/11/21 05:29:36;;;;;;;61.67;27.33;;;2.90;91.10;;;;;;5096529;28;20020;-61
2022/11/21 05:32:01;;;;;;;72.65;28.05;;;2.80;91.30;;;;;;5095943;28;20040;-60
2022/11/21 05:34:27;;;;;;;67.32;27.17;;;2.70;91.40;;;;;;5095596;28;20110;-60
2022/11/21 05:36:57;;;;;;;59.65;25.17;;;2.80;91.70;;;;;;5095656;28;20465;-60
2022/11/21 05:39:23;;;;;;;67.70;26.60;;;2.80;91.60;;;;;;5095529;28;20031;-60
2022/11/21 05:41:48;;;;;;;64.50;24.67;;;2.80;91.40;;;;;;5095637;28;20314;-62
2022/11/21 05:44:14;;;;;;;75.70;26.70;;;2.70;91.40;;;;;;5095791;28;20028;-60
2022/11/21 05:46:39;;;;;;;63.95;27.10;;;2.60;91.50;;;;;;5095428;28;20536;-60
2022/11/21 05:49:05;;;;;;;57.08;23.42;;;2.60;91.60;;;;;;5095409;28;20023;-60
2022/11/21 05:51:31;;;;;;;52.13;22.30;;;2.80;91.80;;;;;;5096148;28;20363;-59
2022/11/21 05:53:58;;;;;;;56.90;23.15;;;2.70;91.80;;;;;;5095062;28;20032;-62
2022/11/21 05:56:24;;;;;;;53.03;22.67;;;2.70;91.90;;;;;;5095052;28;20103;-60
2022/11/21 05:58:49;;;;;;;57.58;24.20;;;2.80;91.90;;;;;;5095065;28;20075;-60
2022/11/21 06:03:25;;;;;;;55.58;21.10;;;2.70;91.70;;;;;;5094967;28;20056;-60
2022/11/21 06:04:01;;;;;;;48.38;21.25;;;2.60;91.80;;;;;;5094868;28;20503;-59
2022/11/21 06:06:26;;;;;;;51.72;21.00;;;2.80;92.20;;;;;;5095306;28;20078;-59
2022/11/21 06:08:52;;;;;;;53.05;21.98;;;2.80;91.90;;;;;;5094974;28;20104;-60
2022/11/21 06:11:18;;;;;;;55.70;21.55;;;2.80;91.70;;;;;;5094883;28;20050;-58
2022/11/21 06:13:44;;;;;;;66.30;23.92;;;2.80;91.70;;;;;;5094758;28;20024;-59
2022/11/21 06:16:12;;;;;;;66.40;26.17;;;2.90;91.50;;;;;;5094599;28;20530;-61
2022/11/21 06:18:40;;;;;;;68.57;25.80;;;3.00;91.40;;;;;;5094566;28;20028;-61
2022/11/21 06:21:13;;;;;;;64.05;22.77;;;3.00;91.10;;;;;;5076762;28;20028;-60
2022/11/21 06:23:39;;;;;;;63.95;26.05;;;3.00;91.20;;;;;;5094747;28;20024;-59
2022/11/21 06:26:06;;;;;;;60.60;25.40;;;3.20;91.40;;;;;;5094201;28;20031;-59
2022/11/21 06:28:37;;;;;;;67.50;27.70;;;3.20;91.10;;;;;;5094822;28;20024;-59
2022/11/21 06:31:11;;;;;;;63.95;25.23;;;3.20;91.30;;;;;;5094255;28;20024;-61
2022/11/21 06:33:38;;;;;;;73.63;26.95;;;3.20;91.10;;;;;;5094196;28;20028;-60
2022/11/21 06:36:05;;;;;;;69.53;26.83;;;3.20;91.10;;;;;;5094355;28;20024;-60
2022/11/21 06:38:31;;;;;;;81.57;26.50;;;3.20;91.20;;;;;;5094182;28;20024;-61
2022/11/21 06:40:57;;;;;;;81.43;28.55;;;3.10;91.20;;;;;;5094796;28;20035;-62
2022/11/21 06:43:23;;;;;;;79.70;27.80;;;2.90;91.30;;;;;;5094006;28;20024;-62
2022/11/21 15:54:23;;;;;;;24.75;14.20;;;5.60;93.20;;;;;;5091757;27;20426;-62
2022/11/21 15:56:49;;;;;;;29.40;15.73;;;5.80;93.40;;;;;;5091269;28;20464;-61
2022/11/21 15:59:16;;;;;;;29.50;16.60;;;5.80;93.30;;;;;;5091192;28;20052;-59
2022/11/21 16:01:42;;;;;;;28.20;16.10;;;5.80;93.40;;;;;;5089445;28;20025;-61
2022/11/21 16:04:10;;;;;;;24.48;15.10;;;5.90;93.30;;;;;;5090942;28;20098;-62
2022/11/21 16:06:36;;;;;;;25.67;16.83;;;5.90;93.10;;;;;;5090959;28;20028;-60
2022/11/21 16:09:03;;;;;;;24.08;14.82;;;5.90;92.90;;;;;;5091397;28;20108;-61
2022/11/21 16:11:33;;;;;;;28.25;15.40;;;5.90;92.70;;;;;;5090586;28;20024;-63
2022/11/21 16:14:01;;;;;;;21.63;13.07;;;5.90;92.70;;;;;;5089483;28;20032;-62
2022/11/21 16:16:32;;;;;;;29.20;14.10;;;5.90;92.70;;;;;;5090898;28;20380;-62
2022/11/21 16:18:58;;;;;;;22.17;12.90;;;5.90;92.50;;;;;;5091148;28;20020;-62
2022/11/21 16:21:25;;;;;;;23.23;12.38;;;5.90;92.40;;;;;;5090583;28;20101;-62
2022/11/21 16:23:51;;;;;;;19.75;12.68;;;5.90;92.10;;;;;;5090177;28;20042;-61
2022/11/21 16:26:18;;;;;;;20.67;12.15;;;5.90;92.10;;;;;;5090053;28;20104;-64
2022/11/21 16:28:43;;;;;;;23.52;11.30;;;5.90;92.10;;;;;;5090267;28;20028;-61
2022/11/21 16:31:20;;;;;;;18.35;10.93;;;5.90;92.10;;;;;;5090454;28;20551;-61
2022/11/21 16:33:45;;;;;;;17.48;10.60;;;5.80;91.90;;;;;;5090129;28;20472;-61
2022/11/21 16:36:12;;;;;;;18.38;10.35;;;5.80;91.80;;;;;;5091039;28;20020;-60
2022/11/21 16:38:41;;;;;;;26.33;13.38;;;5.80;91.80;;;;;;5088874;28;20119;-61
2022/11/21 16:41:07;;;;;;;19.92;11.50;;;5.80;91.90;;;;;;5089845;28;20025;-63
2022/11/21 16:43:32;;;;;;;20.50;12.77;;;6.00;92.10;;;;;;5088567;28;20388;-61
2022/11/21 16:46:08;;;;;;;20.83;11.20;;;6.20;91.70;;;;;;5090312;28;20484;-61
2022/11/21 16:48:34;;;;;;;15.27;10.88;;;6.20;91.20;;;;;;5089319;28;20473;-61
2022/11/21 16:51:13;;;;;;;17.55;10.90;;;6.20;90.60;;;;;;5093035;28;20032;-63
2022/11/21 16:53:42;;;;;;;23.48;12.00;;;6.10;90.70;;;;;;5092676;28;20040;-62
2022/11/21 16:56:09;;;;;;;15.48;10.35;;;6.20;90.50;;;;;;5091485;28;20025;-62
2022/11/21 16:58:36;;;;;;;23.52;11.35;;;6.10;90.10;;;;;;5090609;28;20337;-60
2022/11/21 17:01:16;;;;;;;22.67;12.55;;;6.00;90.40;;;;;;5089494;28;20028;-60
2022/11/21 17:03:46;;;;;;;17.05;11.75;;;5.90;90.50;;;;;;5087941;28;20476;-62
2022/11/21 17:06:15;;;;;;;15.40;9.95;;;5.90;90.80;;;;;;5075889;28;20032;-59
2022/11/21 17:08:41;;;;;;;24.73;13.38;;;6.10;90.70;;;;;;5076378;28;20025;-60
2022/11/21 17:11:16;;;;;;;21.50;11.43;;;6.10;90.30;;;;;;5075575;28;20384;-62
2022/11/21 17:13:42;;;;;;;20.83;10.05;;;5.90;90.50;;;;;;5075557;28;20062;-63
2022/11/21 17:16:09;;;;;;;25.05;10.73;;;5.90;90.80;;;;;;5076399;28;20020;-60
2022/11/21 17:18:35;;;;;;;20.83;12.48;;;6.00;90.70;;;;;;5075547;28;20132;-61
2022/11/21 17:21:08;;;;;;;24.55;11.60;;;5.90;90.70;;;;;;5075958;28;20024;-61
2022/11/21 17:23:36;;;;;;;20.02;12.32;;;5.90;90.70;;;;;;5074093;28;20032;-61
2022/11/21 17:26:06;;;;;;;19.35;10.90;;;5.90;90.90;;;;;;5075404;28;20472;-62
2022/11/21 17:28:32;;;;;;;25.60;13.93;;;5.90;91.00;;;;;;5075274;28;20028;-62
2022/11/21 17:30:58;;;;;;;25.58;12.55;;;5.90;90.80;;;;;;5075591;28;20036;-62
2022/11/21 17:33:24;;;;;;;18.05;11.30;;;5.90;90.60;;;;;;5075145;28;20469;-62
2022/11/21 17:35:50;;;;;;;21.50;11.38;;;6.10;90.70;;;;;;5075395;28;20040;-61
2022/11/21 17:38:15;;;;;;;22.08;11.43;;;6.20;90.10;;;;;;5075408;28;20043;-61
2022/11/21 17:40:41;;;;;;;23.63;12.82;;;6.20;89.80;;;;;;5073822;28;20025;-61
2022/11/21 17:43:06;;;;;;;24.92;13.65;;;6.10;89.70;;;;;;5075758;28;20051;-63
2022/11/21 17:45:34;;;;;;;27.02;14.57;;;6.00;90.00;;;;;;5075759;28;20097;-61
2022/11/21 17:48:00;;;;;;;24.20;12.93;;;5.90;90.00;;;;;;5075398;28;20052;-61
2022/11/21 17:50:25;;;;;;;16.45;9.10;;;5.90;90.30;;;;;;5075257;28;20039;-60
2022/11/21 17:52:51;;;;;;;15.85;9.50;;;6.20;89.90;;;;;;5074944;28;20120;-60
2022/11/21 17:55:17;;;;;;;14.70;10.02;;;6.10;89.30;;;;;;5073615;28;20027;-59
2022/11/21 17:57:43;;;;;;;17.67;9.32;;;6.10;89.40;;;;;;5074932;28;20024;-59
2022/11/21 18:00:09;;;;;;;17.92;9.90;;;6.00;89.50;;;;;;5074962;28;20058;-61
2022/11/21 18:02:34;;;;;;;21.20;10.48;;;6.00;89.50;;;;;;5075056;28;20112;-61
2022/11/21 18:05:00;;;;;;;25.90;12.65;;;6.00;89.40;;;;;;5075022;28;20489;-59
2022/11/21 18:07:26;;;;;;;21.85;11.80;;;5.90;89.60;;;;;;5073463;28;20056;-59
2022/11/21 18:09:51;;;;;;;28.58;13.85;;;5.90;89.80;;;;;;5074826;28;20504;-60
2022/11/21 18:12:17;;;;;;;28.77;15.63;;;5.80;89.80;;;;;;5074444;28;20031;-62
2022/11/21 18:14:42;;;;;;;29.05;15.02;;;5.80;89.80;;;;;;5074950;28;20025;-62
2022/11/21 18:17:08;;;;;;;25.88;12.93;;;5.80;90.00;;;;;;5073952;28;20460;-60
2022/11/21 18:19:33;;;;;;;21.38;11.07;;;5.80;89.90;;;;;;5074600;28;20020;-61
2022/11/21 18:21:59;;;;;;;27.20;12.00;;;5.80;90.10;;;;;;5074550;28;20036;-62
2022/11/21 18:24:26;;;;;;;12.95;8.05;;;6.00;90.10;;;;;;5075189;28;20048;-62
2022/11/21 18:26:52;;;;;;;13.23;8.25;;;5.80;89.60;;;;;;5074628;28;20101;-62
2022/11/21 18:29:18;;;;;;;12.63;7.97;;;5.80;90.00;;;;;;5073422;28;20051;-61
2022/11/21 18:31:44;;;;;;;19.83;9.30;;;6.00;89.90;;;;;;5078846;28;20020;-61
2022/11/21 18:34:11;;;;;;;20.83;11.25;;;5.80;89.60;;;;;;5079459;28;20028;-61
2022/11/21 18:36:36;;;;;;;17.52;9.10;;;5.80;89.80;;;;;;5077970;28;20377;-61
2022/11/21 18:39:03;;;;;;;14.45;9.40;;;5.80;90.00;;;;;;5078217;28;20029;-62
2022/11/21 18:41:32;;;;;;;17.80;9.23;;;5.90;90.10;;;;;;5077830;28;20021;-61
2022/11/21 18:44:02;;;;;;;15.02;9.77;;;5.80;89.90;;;;;;5076746;28;20475;-51
2022/11/21 18:46:30;;;;;;;18.73;8.97;;;6.10;90.00;;;;;;5077179;28;20024;-63
2022/11/21 18:48:56;;;;;;;14.82;7.97;;;6.20;89.20;;;;;;5075038;28;20039;-63
2022/11/21 18:51:26;;;;;;;12.25;7.90;;;6.00;88.80;;;;;;5073748;28;20433;-62
2022/11/21 18:53:57;;;;;;;15.88;9.02;;;6.10;89.10;;;;;;5072494;28;20135;-62
2022/11/21 18:56:24;;;;;;;13.98;10.00;;;6.10;89.00;;;;;;5072683;28;20024;-61
2022/11/21 18:58:50;;;;;;;18.25;10.13;;;6.00;89.00;;;;;;5073626;28;20538;-61
2022/11/21 19:01:18;;;;;;;26.02;11.35;;;5.80;89.20;;;;;;5074031;28;20091;-63
2022/11/21 19:03:44;;;;;;;19.50;10.55;;;5.70;89.60;;;;;;5074311;28;20108;-61
2022/11/21 19:06:23;;;;;;;17.83;10.90;;;5.70;90.10;;;;;;5072557;28;20056;-62
2022/11/21 19:08:52;;;;;;;24.35;11.45;;;5.80;90.20;;;;;;5074897;28;20028;-62
2022/11/21 19:11:19;;;;;;;20.60;13.15;;;5.80;89.80;;;;;;5073256;28;20549;-61
2022/11/21 19:13:45;;;;;;;19.95;11.75;;;5.70;90.00;;;;;;5072300;28;20396;-62
2022/11/21 19:16:14;;;;;;;19.38;12.05;;;5.60;90.20;;;;;;5073440;28;20023;-60
2022/11/21 19:18:40;;;;;;;20.58;12.05;;;5.50;90.50;;;;;;5072161;28;20091;-62
2022/11/21 19:21:09;;;;;;;22.30;12.38;;;5.50;90.60;;;;;;5073589;28;20488;-60
2022/11/21 19:23:36;;;;;;;21.92;11.00;;;5.60;90.70;;;;;;5073957;28;20021;-60
2022/11/21 19:26:04;;;;;;;20.58;10.68;;;5.50;90.40;;;;;;5073537;28;20158;-61
2022/11/21 19:28:30;;;;;;;18.48;11.52;;;5.50;90.50;;;;;;5072871;28;20115;-58
2022/11/21 19:30:56;;;;;;;20.38;10.30;;;5.40;90.60;;;;;;5073747;28;20040;-61
2022/11/21 19:33:23;;;;;;;22.17;10.75;;;5.70;90.80;;;;;;5073372;28;20385;-60
2022/11/21 19:35:49;;;;;;;15.48;10.77;;;5.80;90.30;;;;;;5073751;28;20023;-61
2022/11/21 19:38:15;;;;;;;22.70;11.27;;;5.80;89.70;;;;;;5072145;28;20474;-62
2022/11/21 19:43:27;;;;;;;15.02;9.23;;;5.80;89.70;;;;;;5073567;28;20078;-61
2022/11/21 19:45:54;;;;;;;26.17;10.85;;;5.80;89.70;;;;;;5073196;28;20029;-61
2022/11/21 19:48:20;;;;;;;19.63;9.15;;;5.80;89.50;;;;;;5071849;28;20029;-63
2022/11/21 19:50:57;;;;;;;14.85;8.13;;;5.70;89.60;;;;;;5073571;28;20028;-61
2022/11/21 19:53:23;;;;;;;15.63;7.50;;;5.90;89.40;;;;;;5073230;28;20083;-61
2022/11/21 19:55:49;;;;;;;23.33;7.88;;;6.00;88.70;;;;;;5073351;28;20029;-62
2022/11/21 19:58:15;;;;;;;15.52;7.53;;;6.10;88.30;;;;;;5073480;28;20093;-60
2022/11/21 20:00:40;;;;;;;18.30;8.43;;;6.10;87.90;;;;;;5073257;28;20016;-62
2022/11/21 20:03:07;;;;;;;16.15;6.63;;;6.10;88.10;;;;;;5073045;28;20040;-61
2022/11/21 20:05:32;;;;;;;10.55;6.60;;;6.10;88.00;;;;;;5073412;28;20504;-62
2022/11/21 20:07:58;;;;;;;9.52;5.85;;;6.20;87.70;;;;;;5073079;28;20032;-61
2022/11/21 20:10:23;;;;;;;10.93;5.63;;;6.20;87.30;;;;;;5073227;28;20454;-59
2022/11/21 20:12:49;;;;;;;26.05;5.68;;;6.20;87.10;;;;;;5072958;28;20054;-59
2022/11/21 20:15:15;;;;;;;15.25;5.22;;;6.20;86.90;;;;;;5072863;28;20025;-62
2022/11/21 20:17:40;;;;;;;14.27;6.07;;;6.20;86.40;;;;;;5073242;28;20103;-61
2022/11/21 20:20:07;;;;;;;13.50;5.05;;;6.30;86.10;;;;;;5071598;28;20055;-62
2022/11/21 20:22:33;;;;;;;13.02;4.40;;;6.30;85.90;;;;;;5072751;28;20035;-59
2022/11/21 20:24:58;;;;;;;11.68;4.85;;;6.30;85.90;;;;;;5072979;28;20024;-61
2022/11/21 20:27:24;;;;;;;16.35;5.57;;;6.30;85.70;;;;;;5072668;28;20058;-62
2022/11/21 20:29:50;;;;;;;9.02;4.28;;;6.40;85.50;;;;;;5071458;28;20039;-59
2022/11/21 20:32:15;;;;;;;9.20;4.70;;;6.50;85.60;;;;;;5072799;28;20024;-61
2022/11/21 20:34:41;;;;;;;17.35;5.10;;;6.60;84.80;;;;;;5073318;28;20025;-62
2022/11/21 20:37:06;;;;;;;12.15;4.82;;;6.60;84.50;;;;;;5073092;28;20063;-61
2022/11/21 20:39:32;;;;;;;12.13;5.82;;;6.70;84.60;;;;;;5073688;28;20025;-63
2022/11/21 20:41:58;;;;;;;10.07;4.85;;;6.60;84.30;;;;;;5075100;28;20029;-61
2022/11/21 20:44:24;;;;;;;14.88;4.63;;;6.50;84.10;;;;;;5076652;28;20066;-61
2022/11/21 20:46:50;;;;;;;12.80;5.03;;;6.70;84.50;;;;;;5076633;28;20458;-61
2022/11/21 20:49:16;;;;;;;13.20;5.68;;;6.70;84.30;;;;;;5077833;28;20029;-61
2022/11/21 20:51:42;;;;;;;10.15;4.47;;;6.70;84.20;;;;;;5076496;28;20033;-49
2022/11/21 20:54:08;;;;;;;19.70;6.22;;;6.60;84.30;;;;;;5076027;28;20052;-49
2022/11/21 20:56:35;;;;;;;12.30;4.82;;;6.50;84.50;;;;;;5076249;28;20032;-50
2022/11/21 20:59:02;;;;;;;7.63;4.43;;;6.50;84.70;;;;;;5076247;28;20017;-51
2022/11/21 21:01:27;;;;;;;11.50;5.13;;;6.50;84.90;;;;;;5076479;28;20066;-51
2022/11/21 21:03:53;;;;;;;10.80;4.78;;;6.50;84.80;;;;;;5076836;28;20028;-52
2022/11/21 21:06:19;;;;;;;11.05;5.32;;;6.50;84.80;;;;;;5076782;28;20484;-51
2022/11/21 21:08:46;;;;;;;7.70;3.97;;;6.50;84.70;;;;;;5076859;28;20424;-47
2022/11/21 21:11:15;;;;;;;9.02;4.30;;;6.50;84.50;;;;;;5076416;28;20035;-51
2022/11/21 21:13:42;;;;;;;10.65;4.90;;;6.60;84.60;;;;;;5076175;28;20025;-52
2022/11/21 21:16:14;;;;;;;8.40;4.05;;;6.60;84.40;;;;;;5076145;28;20040;-49
2022/11/21 21:18:40;;;;;;;14.50;4.18;;;6.70;84.20;;;;;;5076229;28;20028;-48
2022/11/21 21:21:09;;;;;;;17.55;4.88;;;6.60;84.50;;;;;;5076038;28;20115;-48
2022/11/21 21:23:35;;;;;;;10.65;4.65;;;6.60;84.50;;;;;;5076052;28;20017;-49
2022/11/21 21:26:09;;;;;;;17.58;5.32;;;6.50;84.40;;;;;;5076173;28;20498;-49
2022/11/21 21:28:35;;;;;;;8.93;4.20;;;6.50;84.70;;;;;;5076255;28;20031;-49
2022/11/21 21:31:05;;;;;;;9.68;4.88;;;6.70;84.70;;;;;;5075567;28;20025;-49
2022/11/21 21:33:31;;;;;;;;;;;6.70;84.20;;;;;;5076251;28;20487;-47
2022/11/21 21:36:02;;;;;;;9.15;3.95;;;6.80;84.20;;;;;;5075602;28;19904;-51
2022/11/21 21:38:27;;;;;;;15.82;3.85;;;6.70;83.90;;;;;;5075824;28;20021;-51
2022/11/21 21:40:56;;;;;;;14.90;4.05;;;6.60;84.30;;;;;;5075336;28;20483;-48
2022/11/21 21:43:21;;;;;;;9.90;4.78;;;6.60;84.10;;;;;;5075402;28;20031;-50
2022/11/21 21:45:47;;;;;;;8.68;4.25;;;6.60;84.10;;;;;;5075267;28;20107;-49
2022/11/21 21:48:13;;;;;;;19.02;4.97;;;6.70;84.10;;;;;;5075648;28;20035;-50
2022/11/21 21:50:39;;;;;;;10.35;4.38;;;6.70;83.80;;;;;;5075286;28;20048;-49
2022/11/21 21:53:04;;;;;;;8.73;3.70;;;6.80;83.50;;;;;;5075032;28;20083;-51
2022/11/21 21:55:30;;;;;;;9.85;3.65;;;6.90;83.50;;;;;;5075628;28;20545;-49